Airfield :
LOGIN :

Register | Disclaimer

   EN    FR    IT 

 










Legend :    VFR   Marginal VFR   IFR   Intensive IFR   Very Intensive IFR
Visi :
Ceiling :
>= 8 km
>= 3000ft
5 to 8 km
1000 to 3000 ft
1500m to 5 km
500 to 1000 ft
800 to 1500m
200 to 500 ft
< 800m
< 200 ft
Symbols :   Thunderstorms  Fog  Heavy snow  Heavy precipitations  Wind > 20 kt
SIGMETs :     Misc.  Thunderstorms  Icing  Turbulence  Mountain Waves  Volcanic Ashes






- Airport Elevation : 78 ft
- IATA code : LED


ULLI - Pulkovo

CURRENT METAR :
  • 280830Z 28004MPS 240V330 CAVOK 17/08 Q1019 R28R/090060 NOSIG

EXPIRED METARs :
  • 280800Z 28003MPS 250V320 CAVOK 17/08 Q1019 R28R/090060 NOSIG
  • 280730Z 30004MPS 220V340 CAVOK 17/08 Q1019 R28R/090060 NOSIG
  • 280700Z 27003MPS 200V300 CAVOK 16/08 Q1019 R28R/090060 NOSIG
  • 280630Z 27002MPS 230V320 CAVOK 16/08 Q1019 R28R/090060 NOSIG
  • 280600Z 26002MPS 230V300 CAVOK 15/08 Q1019 R28R/090060 NOSIG

TAF TAF ULLI
Valid from the 28 at 09:00 until the 29 at 09:00 UTC


280755Z 2809/2909 30003G08MPS 9999 BKN030
TEMPO 2811/2818 34005G10MPS 3100 -SHRA SCT016 BKN025CB
BECMG 2821/2824 34003MPS FEW025



MET'MAP, your aeronautical weather chart ! - Copyright ORBIFLY December 2007 - Disclaimer

ORBIFLY MET'MAP TEAM :

Programming & Development : Alexandra Zaïnal
Concept & original design : Baudouin d'Aumeries
Assistance for programming : Marc-Olivier Méhu
Technical & hardware support : Manuel Goepfert

Contact : metmap@orbifly.com




SOURCES & CREDITS :

   NOAA